sensor_id;sensor_type;location;lat;lon;timestamp;pressure;altitude;pressure_sealevel;temperature;humidity
45813;BME280;31519;45.408;10.962;2023-05-10T00:00:16;100398.16;;;21.09;55.91
45813;BME280;31519;45.408;10.962;2023-05-10T00:03:05;100394.31;;;21.10;55.73
45813;BME280;31519;45.408;10.962;2023-05-10T00:05:33;100396.44;;;20.84;56.54
45813;BME280;31519;45.408;10.962;2023-05-10T00:08:02;100393.03;;;20.94;56.20
45813;BME280;31519;45.408;10.962;2023-05-10T00:10:30;100390.06;;;20.62;57.14
45813;BME280;31519;45.408;10.962;2023-05-10T00:12:58;100390.16;;;20.72;57.60
45813;BME280;31519;45.408;10.962;2023-05-10T00:15:26;100386.19;;;20.63;57.92
45813;BME280;31519;45.408;10.962;2023-05-10T00:17:54;100382.13;;;20.87;58.14
45813;BME280;31519;45.408;10.962;2023-05-10T00:20:22;100386.78;;;20.86;58.30
45813;BME280;31519;45.408;10.962;2023-05-10T00:22:50;100384.25;;;20.60;59.09
45813;BME280;31519;45.408;10.962;2023-05-10T00:25:18;100372.66;;;20.59;59.42
45813;BME280;31519;45.408;10.962;2023-05-10T00:27:47;100373.06;;;20.61;59.31
45813;BME280;31519;45.408;10.962;2023-05-10T00:30:16;100373.91;;;20.72;58.71
45813;BME280;31519;45.408;10.962;2023-05-10T00:32:44;100367.44;;;20.40;58.54
45813;BME280;31519;45.408;10.962;2023-05-10T00:35:12;100359.22;;;20.70;57.88
45813;BME280;31519;45.408;10.962;2023-05-10T00:37:40;100355.72;;;20.69;57.99
45813;BME280;31519;45.408;10.962;2023-05-10T00:40:08;100353.22;;;20.47;57.90
45813;BME280;31519;45.408;10.962;2023-05-10T00:42:38;100352.09;;;20.51;57.19
45813;BME280;31519;45.408;10.962;2023-05-10T00:45:07;100348.69;;;20.61;56.59
45813;BME280;31519;45.408;10.962;2023-05-10T00:47:37;100354.59;;;20.74;56.89
45813;BME280;31519;45.408;10.962;2023-05-10T00:50:05;100345.63;;;20.26;55.56
45813;BME280;31519;45.408;10.962;2023-05-10T00:52:34;100347.59;;;20.25;55.73
45813;BME280;31519;45.408;10.962;2023-05-10T00:55:02;100340.47;;;20.47;55.35
45813;BME280;31519;45.408;10.962;2023-05-10T00:57:32;100338.00;;;20.31;54.62
45813;BME280;31519;45.408;10.962;2023-05-10T01:00:01;100333.97;;;20.15;55.08
45813;BME280;31519;45.408;10.962;2023-05-10T01:02:30;100331.94;;;20.08;54.30
45813;BME280;31519;45.408;10.962;2023-05-10T01:04:58;100331.22;;;19.74;55.04
45813;BME280;31519;45.408;10.962;2023-05-10T01:07:27;100326.53;;;19.71;55.06
45813;BME280;31519;45.408;10.962;2023-05-10T01:09:56;100327.19;;;20.31;53.54
45813;BME280;31519;45.408;10.962;2023-05-10T01:12:25;100329.34;;;20.19;54.09
45813;BME280;31519;45.408;10.962;2023-05-10T01:14:54;100328.44;;;20.04;53.14
45813;BME280;31519;45.408;10.962;2023-05-10T01:17:24;100314.59;;;20.13;53.54
45813;BME280;31519;45.408;10.962;2023-05-10T01:19:52;100316.31;;;19.87;54.59
45813;BME280;31519;45.408;10.962;2023-05-10T01:25:48;100324.22;;;19.70;53.50
45813;BME280;31519;45.408;10.962;2023-05-10T01:31:35;100318.81;;;20.07;53.66
45813;BME280;31519;45.408;10.962;2023-05-10T01:34:12;100314.63;;;19.76;54.30
45813;BME280;31519;45.408;10.962;2023-05-10T01:37:07;100305.06;;;19.85;53.46
45813;BME280;31519;45.408;10.962;2023-05-10T01:39:59;100303.97;;;19.90;52.51
45813;BME280;31519;45.408;10.962;2023-05-10T01:42:42;100317.13;;;19.91;52.68
45813;BME280;31519;45.408;10.962;2023-05-10T01:45:21;100307.38;;;19.83;53.11
45813;BME280;31519;45.408;10.962;2023-05-10T01:48:02;100305.25;;;20.03;52.69
45813;BME280;31519;45.408;10.962;2023-05-10T01:50:36;100317.59;;;19.64;53.00
45813;BME280;31519;45.408;10.962;2023-05-10T01:53:07;100311.75;;;19.95;53.01
45813;BME280;31519;45.408;10.962;2023-05-10T01:55:46;100320.09;;;19.79;53.64
45813;BME280;31519;45.408;10.962;2023-05-10T01:58:27;100319.53;;;19.67;53.31
45813;BME280;31519;45.408;10.962;2023-05-10T02:00:58;100318.53;;;19.78;54.09
45813;BME280;31519;45.408;10.962;2023-05-10T02:03:29;100329.34;;;19.78;53.99
45813;BME280;31519;45.408;10.962;2023-05-10T02:05:59;100333.25;;;19.51;54.40
45813;BME280;31519;45.408;10.962;2023-05-10T02:08:28;100332.97;;;19.60;54.80
45813;BME280;31519;45.408;10.962;2023-05-10T02:10:58;100344.47;;;19.53;55.82
45813;BME280;31519;45.408;10.962;2023-05-10T02:13:29;100343.25;;;19.21;57.07
45813;BME280;31519;45.408;10.962;2023-05-10T02:15:59;100345.38;;;19.08;57.48
45813;BME280;31519;45.408;10.962;2023-05-10T02:18:29;100343.50;;;19.12;58.05
45813;BME280;31519;45.408;10.962;2023-05-10T02:21:01;100336.97;;;19.13;58.30
45813;BME280;31519;45.408;10.962;2023-05-10T02:23:30;100343.16;;;18.87;59.73
45813;BME280;31519;45.408;10.962;2023-05-10T02:26:00;100341.41;;;19.25;59.17
45813;BME280;31519;45.408;10.962;2023-05-10T02:28:29;100337.03;;;18.90;61.31
45813;BME280;31519;45.408;10.962;2023-05-10T02:30:59;100349.28;;;18.84;61.77
45813;BME280;31519;45.408;10.962;2023-05-10T02:33:28;100341.88;;;18.78;63.06
45813;BME280;31519;45.408;10.962;2023-05-10T02:35:57;100345.88;;;18.87;62.63
45813;BME280;31519;45.408;10.962;2023-05-10T02:38:26;100339.81;;;18.71;63.75
45813;BME280;31519;45.408;10.962;2023-05-10T02:40:59;100344.03;;;18.69;65.10
45813;BME280;31519;45.408;10.962;2023-05-10T02:43:28;100342.91;;;18.70;65.50
45813;BME280;31519;45.408;10.962;2023-05-10T02:45:58;100344.03;;;18.46;66.54
45813;BME280;31519;45.408;10.962;2023-05-10T02:48:26;100341.81;;;18.51;67.18
45813;BME280;31519;45.408;10.962;2023-05-10T02:50:56;100344.47;;;18.29;66.96
45813;BME280;31519;45.408;10.962;2023-05-10T02:53:32;100344.44;;;18.25;69.38
45813;BME280;31519;45.408;10.962;2023-05-10T02:56:05;100347.06;;;18.22;69.63
45813;BME280;31519;45.408;10.962;2023-05-10T02:58:36;100351.28;;;18.19;70.78
45813;BME280;31519;45.408;10.962;2023-05-10T03:01:05;100334.91;;;18.08;71.03
45813;BME280;31519;45.408;10.962;2023-05-10T03:03:35;100338.44;;;18.12;72.14
45813;BME280;31519;45.408;10.962;2023-05-10T03:06:04;100331.94;;;17.94;74.11
45813;BME280;31519;45.408;10.962;2023-05-10T03:08:32;100336.91;;;17.92;73.52
45813;BME280;31519;45.408;10.962;2023-05-10T03:11:37;100334.63;;;17.94;74.57
45813;BME280;31519;45.408;10.962;2023-05-10T03:14:28;100335.38;;;17.72;74.32
45813;BME280;31519;45.408;10.962;2023-05-10T03:19:48;100330.09;;;17.79;75.01
45813;BME280;31519;45.408;10.962;2023-05-10T03:22:39;100339.75;;;17.61;77.10
45813;BME280;31519;45.408;10.962;2023-05-10T03:25:10;100337.28;;;17.71;77.33
45813;BME280;31519;45.408;10.962;2023-05-10T03:27:42;100334.38;;;17.61;76.01
45813;BME280;31519;45.408;10.962;2023-05-10T03:30:12;100324.31;;;17.77;77.47
45813;BME280;31519;45.408;10.962;2023-05-10T03:32:42;100327.50;;;17.83;77.12
45813;BME280;31519;45.408;10.962;2023-05-10T03:35:12;100317.13;;;17.85;76.28
45813;BME280;31519;45.408;10.962;2023-05-10T03:37:42;100325.44;;;17.76;76.77
45813;BME280;31519;45.408;10.962;2023-05-10T03:40:10;100313.59;;;17.61;79.03
45813;BME280;31519;45.408;10.962;2023-05-10T03:42:41;100321.31;;;17.44;80.08
45813;BME280;31519;45.408;10.962;2023-05-10T03:45:09;100313.66;;;17.46;80.12
45813;BME280;31519;45.408;10.962;2023-05-10T03:47:38;100318.25;;;17.45;79.38
45813;BME280;31519;45.408;10.962;2023-05-10T03:50:06;100317.97;;;17.50;79.62
45813;BME280;31519;45.408;10.962;2023-05-10T03:52:36;100316.63;;;17.41;80.42
45813;BME280;31519;45.408;10.962;2023-05-10T03:55:07;100316.34;;;17.46;78.56
45813;BME280;31519;45.408;10.962;2023-05-10T03:57:36;100322.69;;;17.38;79.90
45813;BME280;31519;45.408;10.962;2023-05-10T04:00:06;100323.16;;;17.40;80.53
45813;BME280;31519;45.408;10.962;2023-05-10T04:02:40;100319.72;;;17.43;80.27
45813;BME280;31519;45.408;10.962;2023-05-10T04:05:16;100320.16;;;17.45;81.19
45813;BME280;31519;45.408;10.962;2023-05-10T04:07:45;100322.00;;;17.41;80.82
45813;BME280;31519;45.408;10.962;2023-05-10T04:10:15;100317.19;;;17.31;82.67
45813;BME280;31519;45.408;10.962;2023-05-10T04:12:45;100308.50;;;17.02;83.84
45813;BME280;31519;45.408;10.962;2023-05-10T04:15:13;100310.09;;;17.42;82.86
45813;BME280;31519;45.408;10.962;2023-05-10T04:17:41;100309.47;;;17.48;82.31
45813;BME280;31519;45.408;10.962;2023-05-10T04:20:10;100309.25;;;17.38;81.84
45813;BME280;31519;45.408;10.962;2023-05-10T04:22:39;100301.03;;;17.31;82.01
45813;BME280;31519;45.408;10.962;2023-05-10T04:25:07;100310.31;;;17.33;82.42
45813;BME280;31519;45.408;10.962;2023-05-10T04:27:35;100310.75;;;17.35;81.32
45813;BME280;31519;45.408;10.962;2023-05-10T04:30:03;100311.56;;;17.20;83.35
45813;BME280;31519;45.408;10.962;2023-05-10T04:32:32;100312.41;;;17.24;84.10
45813;BME280;31519;45.408;10.962;2023-05-10T04:35:00;100315.88;;;17.24;84.28
45813;BME280;31519;45.408;10.962;2023-05-10T04:37:31;100315.22;;;17.27;83.25
45813;BME280;31519;45.408;10.962;2023-05-10T04:39:59;100324.78;;;17.44;81.92
45813;BME280;31519;45.408;10.962;2023-05-10T04:42:27;100318.03;;;17.35;83.20
45813;BME280;31519;45.408;10.962;2023-05-10T04:44:55;100318.81;;;17.35;82.39
45813;BME280;31519;45.408;10.962;2023-05-10T04:47:23;100316.47;;;17.53;81.76
45813;BME280;31519;45.408;10.962;2023-05-10T04:49:51;100316.97;;;17.39;82.97
45813;BME280;31519;45.408;10.962;2023-05-10T04:52:20;100318.53;;;17.40;82.25
45813;BME280;31519;45.408;10.962;2023-05-10T04:54:48;100318.78;;;17.16;84.04
45813;BME280;31519;45.408;10.962;2023-05-10T04:57:17;100322.84;;;17.25;82.24
45813;BME280;31519;45.408;10.962;2023-05-10T04:59:45;100324.63;;;17.37;82.62
45813;BME280;31519;45.408;10.962;2023-05-10T05:02:17;100324.75;;;17.25;82.54
45813;BME280;31519;45.408;10.962;2023-05-10T05:04:44;100324.81;;;17.28;82.08
45813;BME280;31519;45.408;10.962;2023-05-10T05:07:14;100332.03;;;17.24;84.13
45813;BME280;31519;45.408;10.962;2023-05-10T05:09:42;100330.00;;;17.18;84.53
45813;BME280;31519;45.408;10.962;2023-05-10T05:12:10;100334.72;;;17.24;82.87
45813;BME280;31519;45.408;10.962;2023-05-10T05:14:41;100329.00;;;17.26;83.26
45813;BME280;31519;45.408;10.962;2023-05-10T05:17:10;100335.75;;;17.01;84.88
45813;BME280;31519;45.408;10.962;2023-05-10T05:19:37;100331.94;;;17.02;85.04
45813;BME280;31519;45.408;10.962;2023-05-10T05:22:06;100329.91;;;17.14;85.56
45813;BME280;31519;45.408;10.962;2023-05-10T05:24:36;100327.88;;;17.27;84.34
45813;BME280;31519;45.408;10.962;2023-05-10T05:27:07;100327.34;;;17.02;83.74
45813;BME280;31519;45.408;10.962;2023-05-10T05:29:35;100329.94;;;16.99;86.23
45813;BME280;31519;45.408;10.962;2023-05-10T05:32:03;100328.34;;;17.13;84.70
45813;BME280;31519;45.408;10.962;2023-05-10T05:34:31;100323.97;;;17.24;83.33
45813;BME280;31519;45.408;10.962;2023-05-10T05:36:59;100325.25;;;17.31;83.85
45813;BME280;31519;45.408;10.962;2023-05-10T05:39:27;100327.47;;;17.44;84.88
45813;BME280;31519;45.408;10.962;2023-05-10T05:41:56;100329.38;;;17.44;83.20
45813;BME280;31519;45.408;10.962;2023-05-10T05:44:26;100324.44;;;17.11;85.25
45813;BME280;31519;45.408;10.962;2023-05-10T05:46:56;100330.66;;;17.31;85.22
45813;BME280;31519;45.408;10.962;2023-05-10T05:49:24;100330.78;;;17.18;85.00
45813;BME280;31519;45.408;10.962;2023-05-10T05:51:53;100330.59;;;17.11;85.84
45813;BME280;31519;45.408;10.962;2023-05-10T05:54:21;100319.06;;;17.11;85.12
45813;BME280;31519;45.408;10.962;2023-05-10T05:56:49;100322.13;;;17.09;85.15
45813;BME280;31519;45.408;10.962;2023-05-10T05:59:17;100321.91;;;17.18;85.51
45813;BME280;31519;45.408;10.962;2023-05-10T06:01:45;100322.00;;;17.21;84.58
45813;BME280;31519;45.408;10.962;2023-05-10T06:04:13;100333.63;;;16.91;84.40
45813;BME280;31519;45.408;10.962;2023-05-10T06:06:42;100334.09;;;17.12;84.06
45813;BME280;31519;45.408;10.962;2023-05-10T06:09:11;100335.59;;;17.28;84.04
45813;BME280;31519;45.408;10.962;2023-05-10T06:11:39;100344.25;;;17.18;83.88
45813;BME280;31519;45.408;10.962;2023-05-10T06:14:07;100326.66;;;17.24;83.17
45813;BME280;31519;45.408;10.962;2023-05-10T06:16:35;100332.91;;;17.28;83.85
45813;BME280;31519;45.408;10.962;2023-05-10T06:19:03;100328.59;;;17.43;80.78
45813;BME280;31519;45.408;10.962;2023-05-10T06:21:31;100334.41;;;17.45;81.33
45813;BME280;31519;45.408;10.962;2023-05-10T06:23:59;100333.13;;;17.39;79.86
45813;BME280;31519;45.408;10.962;2023-05-10T06:26:28;100333.63;;;17.45;79.23
45813;BME280;31519;45.408;10.962;2023-05-10T06:28:56;100328.81;;;17.35;78.55
45813;BME280;31519;45.408;10.962;2023-05-10T06:31:24;100334.06;;;17.27;78.83
45813;BME280;31519;45.408;10.962;2023-05-10T06:33:52;100329.03;;;17.64;77.74
45813;BME280;31519;45.408;10.962;2023-05-10T06:36:24;100337.38;;;17.40;79.26
45813;BME280;31519;45.408;10.962;2023-05-10T06:38:54;100329.72;;;17.23;79.12
45813;BME280;31519;45.408;10.962;2023-05-10T06:41:23;100329.78;;;17.26;79.37
45813;BME280;31519;45.408;10.962;2023-05-10T06:43:51;100335.31;;;17.34;78.12
45813;BME280;31519;45.408;10.962;2023-05-10T06:46:19;100328.38;;;17.33;78.42
45813;BME280;31519;45.408;10.962;2023-05-10T06:48:47;100337.94;;;17.30;78.69
45813;BME280;31519;45.408;10.962;2023-05-10T06:51:17;100327.78;;;17.23;78.79
45813;BME280;31519;45.408;10.962;2023-05-10T06:53:45;100334.31;;;17.22;78.61
45813;BME280;31519;45.408;10.962;2023-05-10T06:56:14;100341.34;;;17.27;79.33
45813;BME280;31519;45.408;10.962;2023-05-10T06:58:42;100335.97;;;17.27;77.74
45813;BME280;31519;45.408;10.962;2023-05-10T07:01:10;100342.09;;;17.08;79.17
45813;BME280;31519;45.408;10.962;2023-05-10T07:03:38;100333.50;;;17.03;78.45
45813;BME280;31519;45.408;10.962;2023-05-10T07:06:08;100340.84;;;17.06;80.03
45813;BME280;31519;45.408;10.962;2023-05-10T07:08:48;100340.66;;;17.14;79.19
45813;BME280;31519;45.408;10.962;2023-05-10T07:11:16;100341.38;;;17.11;80.70
45813;BME280;31519;45.408;10.962;2023-05-10T07:13:44;100341.22;;;17.04;81.04
45813;BME280;31519;45.408;10.962;2023-05-10T07:16:14;100349.56;;;16.83;81.78
45813;BME280;31519;45.408;10.962;2023-05-10T07:18:42;100348.53;;;16.88;81.79
45813;BME280;31519;45.408;10.962;2023-05-10T07:21:10;100347.69;;;16.68;83.60
45813;BME280;31519;45.408;10.962;2023-05-10T07:23:38;100353.69;;;16.62;82.97
45813;BME280;31519;45.408;10.962;2023-05-10T07:26:07;100353.31;;;16.79;82.97
45813;BME280;31519;45.408;10.962;2023-05-10T07:28:36;100352.78;;;16.73;83.05
45813;BME280;31519;45.408;10.962;2023-05-10T07:31:07;100355.81;;;17.03;82.62
45813;BME280;31519;45.408;10.962;2023-05-10T07:33:35;100358.25;;;16.93;82.10
45813;BME280;31519;45.408;10.962;2023-05-10T07:36:03;100358.09;;;16.86;82.48
45813;BME280;31519;45.408;10.962;2023-05-10T07:38:31;100355.03;;;16.87;81.69
45813;BME280;31519;45.408;10.962;2023-05-10T07:40:59;100368.44;;;16.68;82.30
45813;BME280;31519;45.408;10.962;2023-05-10T07:43:27;100367.28;;;16.69;84.26
45813;BME280;31519;45.408;10.962;2023-05-10T07:45:56;100367.09;;;17.09;82.23
45813;BME280;31519;45.408;10.962;2023-05-10T07:48:25;100372.47;;;16.93;82.56
45813;BME280;31519;45.408;10.962;2023-05-10T07:50:54;100371.25;;;17.06;82.22
45813;BME280;31519;45.408;10.962;2023-05-10T07:53:21;100378.81;;;17.01;82.08
45813;BME280;31519;45.408;10.962;2023-05-10T07:55:57;100377.75;;;17.05;82.79
45813;BME280;31519;45.408;10.962;2023-05-10T07:58:25;100378.66;;;16.62;84.14
45813;BME280;31519;45.408;10.962;2023-05-10T08:00:55;100388.19;;;16.91;83.60
45813;BME280;31519;45.408;10.962;2023-05-10T08:03:24;100394.53;;;16.83;84.18
45813;BME280;31519;45.408;10.962;2023-05-10T08:05:52;100393.31;;;16.80;84.58
45813;BME280;31519;45.408;10.962;2023-05-10T08:08:20;100385.59;;;16.79;84.75
45813;BME280;31519;45.408;10.962;2023-05-10T08:10:50;100392.28;;;16.85;85.07
45813;BME280;31519;45.408;10.962;2023-05-10T08:13:18;100393.66;;;16.79;85.50
45813;BME280;31519;45.408;10.962;2023-05-10T08:15:46;100392.97;;;16.82;84.59
45813;BME280;31519;45.408;10.962;2023-05-10T08:18:14;100393.75;;;16.82;84.33
45813;BME280;31519;45.408;10.962;2023-05-10T08:20:42;100396.25;;;16.91;84.31
45813;BME280;31519;45.408;10.962;2023-05-10T08:23:12;100397.03;;;17.07;83.03
45813;BME280;31519;45.408;10.962;2023-05-10T08:25:41;100398.69;;;17.12;82.73
45813;BME280;31519;45.408;10.962;2023-05-10T08:28:10;100410.84;;;17.06;84.11
45813;BME280;31519;45.408;10.962;2023-05-10T08:30:38;100401.75;;;16.95;84.05
45813;BME280;31519;45.408;10.962;2023-05-10T08:33:06;100401.75;;;16.95;83.84
45813;BME280;31519;45.408;10.962;2023-05-10T08:35:34;100398.59;;;16.93;84.58
45813;BME280;31519;45.408;10.962;2023-05-10T08:38:02;100406.06;;;16.99;84.38
45813;BME280;31519;45.408;10.962;2023-05-10T08:40:30;100404.25;;;16.72;85.83
45813;BME280;31519;45.408;10.962;2023-05-10T08:43:05;100401.03;;;16.82;85.60
45813;BME280;31519;45.408;10.962;2023-05-10T08:45:41;100404.94;;;16.84;86.53
45813;BME280;31519;45.408;10.962;2023-05-10T08:48:10;100402.16;;;16.65;86.80
45813;BME280;31519;45.408;10.962;2023-05-10T08:50:40;100402.78;;;16.90;86.64
45813;BME280;31519;45.408;10.962;2023-05-10T08:53:13;100397.28;;;16.55;87.18
45813;BME280;31519;45.408;10.962;2023-05-10T08:55:43;100397.94;;;16.80;87.23
45813;BME280;31519;45.408;10.962;2023-05-10T08:58:11;100402.88;;;16.94;86.95
45813;BME280;31519;45.408;10.962;2023-05-10T09:00:39;100405.88;;;16.92;86.36
45813;BME280;31519;45.408;10.962;2023-05-10T09:03:08;100410.41;;;16.88;87.35
45813;BME280;31519;45.408;10.962;2023-05-10T09:05:37;100411.53;;;17.03;87.56
45813;BME280;31519;45.408;10.962;2023-05-10T09:08:06;100412.91;;;17.12;87.10
45813;BME280;31519;45.408;10.962;2023-05-10T09:10:38;100404.13;;;17.15;87.25
45813;BME280;31519;45.408;10.962;2023-05-10T09:13:08;100406.22;;;17.22;88.05
45813;BME280;31519;45.408;10.962;2023-05-10T09:15:38;100397.34;;;17.21;85.38
45813;BME280;31519;45.408;10.962;2023-05-10T09:18:06;100410.03;;;17.21;86.45
45813;BME280;31519;45.408;10.962;2023-05-10T09:20:34;100402.88;;;17.28;86.81
45813;BME280;31519;45.408;10.962;2023-05-10T09:23:02;100402.31;;;17.54;84.00
45813;BME280;31519;45.408;10.962;2023-05-10T09:25:30;100398.34;;;17.48;84.59
45813;BME280;31519;45.408;10.962;2023-05-10T09:28:00;100393.19;;;17.24;85.60
45813;BME280;31519;45.408;10.962;2023-05-10T09:30:30;100399.25;;;17.37;84.61
45813;BME280;31519;45.408;10.962;2023-05-10T09:32:59;100395.78;;;17.36;84.41
45813;BME280;31519;45.408;10.962;2023-05-10T09:35:29;100390.03;;;17.57;83.08
45813;BME280;31519;45.408;10.962;2023-05-10T09:38:03;100395.28;;;17.85;83.12
45813;BME280;31519;45.408;10.962;2023-05-10T09:40:31;100396.75;;;17.63;83.83
45813;BME280;31519;45.408;10.962;2023-05-10T09:43:01;100394.31;;;17.58;82.31
45813;BME280;31519;45.408;10.962;2023-05-10T09:45:31;100392.22;;;17.51;82.45
45813;BME280;31519;45.408;10.962;2023-05-10T09:48:01;100388.13;;;17.57;82.46
45813;BME280;31519;45.408;10.962;2023-05-10T09:50:30;100394.16;;;17.86;81.34
45813;BME280;31519;45.408;10.962;2023-05-10T09:53:00;100389.88;;;17.65;82.61
45813;BME280;31519;45.408;10.962;2023-05-10T09:55:40;100391.84;;;17.88;83.47
45813;BME280;31519;45.408;10.962;2023-05-10T09:58:09;100394.16;;;17.86;83.94
45813;BME280;31519;45.408;10.962;2023-05-10T10:00:40;100392.41;;;17.97;83.88
45813;BME280;31519;45.408;10.962;2023-05-10T10:03:20;100395.31;;;18.07;82.50
45813;BME280;31519;45.408;10.962;2023-05-10T10:05:48;100391.00;;;18.22;81.98
45813;BME280;31519;45.408;10.962;2023-05-10T10:08:18;100385.94;;;18.21;82.96
45813;BME280;31519;45.408;10.962;2023-05-10T10:10:46;100387.78;;;18.16;81.86
45813;BME280;31519;45.408;10.962;2023-05-10T10:13:15;100381.28;;;18.17;83.14
45813;BME280;31519;45.408;10.962;2023-05-10T10:15:44;100387.00;;;18.16;83.29
45813;BME280;31519;45.408;10.962;2023-05-10T10:18:14;100380.78;;;18.12;83.35
45813;BME280;31519;45.408;10.962;2023-05-10T10:20:45;100384.53;;;18.27;83.02
45813;BME280;31519;45.408;10.962;2023-05-10T10:23:13;100385.06;;;18.36;80.56
45813;BME280;31519;45.408;10.962;2023-05-10T10:25:45;100392.81;;;18.37;80.22
45813;BME280;31519;45.408;10.962;2023-05-10T10:31:17;100375.59;;;18.45;80.29
45813;BME280;31519;45.408;10.962;2023-05-10T10:34:27;100378.53;;;18.37;82.39
45813;BME280;31519;45.408;10.962;2023-05-10T10:36:57;100376.19;;;18.54;80.53
45813;BME280;31519;45.408;10.962;2023-05-10T10:39:26;100378.97;;;18.62;78.86
45813;BME280;31519;45.408;10.962;2023-05-10T10:41:56;100385.88;;;18.17;80.39
45813;BME280;31519;45.408;10.962;2023-05-10T10:49:51;100375.84;;;18.37;82.24
45813;BME280;31519;45.408;10.962;2023-05-10T10:55:07;100374.63;;;18.34;82.98
45813;BME280;31519;45.408;10.962;2023-05-10T11:00:38;100369.38;;;18.41;81.67
45813;BME280;31519;45.408;10.962;2023-05-10T11:03:10;100371.94;;;18.34;81.70
45813;BME280;31519;45.408;10.962;2023-05-10T11:05:47;100367.09;;;18.43;80.75
45813;BME280;31519;45.408;10.962;2023-05-10T11:08:26;100357.56;;;18.49;80.15
45813;BME280;31519;45.408;10.962;2023-05-10T11:13:45;100356.94;;;18.56;80.83
45813;BME280;31519;45.408;10.962;2023-05-10T11:16:23;100354.31;;;18.59;81.16
45813;BME280;31519;45.408;10.962;2023-05-10T11:19:02;100353.16;;;18.61;81.58
45813;BME280;31519;45.408;10.962;2023-05-10T11:21:33;100347.22;;;18.74;80.42
45813;BME280;31519;45.408;10.962;2023-05-10T11:24:03;100349.50;;;18.98;78.83
45813;BME280;31519;45.408;10.962;2023-05-10T11:26:40;100354.09;;;18.72;79.97
45813;BME280;31519;45.408;10.962;2023-05-10T11:29:08;100343.06;;;18.80;78.93
45813;BME280;31519;45.408;10.962;2023-05-10T11:31:45;100348.94;;;18.86;81.95
45813;BME280;31519;45.408;10.962;2023-05-10T11:34:28;100352.44;;;18.90;81.87
45813;BME280;31519;45.408;10.962;2023-05-10T11:36:58;100350.00;;;18.81;82.93
45813;BME280;31519;45.408;10.962;2023-05-10T11:39:27;100351.44;;;18.75;85.21
45813;BME280;31519;45.408;10.962;2023-05-10T11:41:58;100357.53;;;18.95;86.20
45813;BME280;31519;45.408;10.962;2023-05-10T11:44:30;100353.66;;;18.92;86.87
45813;BME280;31519;45.408;10.962;2023-05-10T11:47:00;100352.88;;;18.92;87.46
45813;BME280;31519;45.408;10.962;2023-05-10T11:49:29;100357.53;;;18.95;88.97
45813;BME280;31519;45.408;10.962;2023-05-10T11:52:06;100365.22;;;18.93;87.42
45813;BME280;31519;45.408;10.962;2023-05-10T11:54:35;100365.56;;;18.65;87.13
45813;BME280;31519;45.408;10.962;2023-05-10T11:57:03;100362.22;;;18.52;87.54
45813;BME280;31519;45.408;10.962;2023-05-10T11:59:31;100361.41;;;18.48;88.31
45813;BME280;31519;45.408;10.962;2023-05-10T12:01:59;100365.38;;;18.77;86.49
45813;BME280;31519;45.408;10.962;2023-05-10T12:04:28;100372.34;;;18.55;88.76
45813;BME280;31519;45.408;10.962;2023-05-10T12:06:57;100370.78;;;18.77;88.87
45813;BME280;31519;45.408;10.962;2023-05-10T12:09:25;100373.25;;;18.44;87.74
45813;BME280;31519;45.408;10.962;2023-05-10T12:12:15;100368.88;;;18.55;88.64
45813;BME280;31519;45.408;10.962;2023-05-10T12:14:43;100371.34;;;18.44;89.86
45813;BME280;31519;45.408;10.962;2023-05-10T12:17:12;100381.38;;;18.67;91.07
45813;BME280;31519;45.408;10.962;2023-05-10T12:19:40;100378.72;;;18.70;91.45
45813;BME280;31519;45.408;10.962;2023-05-10T12:22:09;100380.91;;;18.61;90.00
45813;BME280;31519;45.408;10.962;2023-05-10T12:24:38;100368.19;;;18.62;90.31
45813;BME280;31519;45.408;10.962;2023-05-10T12:27:09;100372.44;;;18.63;90.31
45813;BME280;31519;45.408;10.962;2023-05-10T12:29:55;100374.22;;;18.32;93.81
45813;BME280;31519;45.408;10.962;2023-05-10T12:32:37;100373.75;;;18.49;93.69
45813;BME280;31519;45.408;10.962;2023-05-10T12:35:06;100374.25;;;18.55;92.74
45813;BME280;31519;45.408;10.962;2023-05-10T12:37:35;100373.22;;;18.40;94.57
45813;BME280;31519;45.408;10.962;2023-05-10T12:40:08;100379.41;;;18.64;94.33
45813;BME280;31519;45.408;10.962;2023-05-10T12:42:38;100377.88;;;18.43;94.67
45813;BME280;31519;45.408;10.962;2023-05-10T12:45:08;100372.38;;;18.36;95.27
45813;BME280;31519;45.408;10.962;2023-05-10T12:47:37;100385.84;;;18.36;95.32
45813;BME280;31519;45.408;10.962;2023-05-10T12:50:07;100372.44;;;18.40;95.50
45813;BME280;31519;45.408;10.962;2023-05-10T12:52:36;100378.63;;;18.21;89.19
45813;BME280;31519;45.408;10.962;2023-05-10T12:55:04;100378.19;;;18.61;92.36
45813;BME280;31519;45.408;10.962;2023-05-10T12:57:33;100382.13;;;18.44;93.82
45813;BME280;31519;45.408;10.962;2023-05-10T13:00:01;100381.31;;;18.40;95.92
45813;BME280;31519;45.408;10.962;2023-05-10T13:02:29;100383.13;;;18.55;94.13
45813;BME280;31519;45.408;10.962;2023-05-10T13:04:57;100376.38;;;18.65;94.45
45813;BME280;31519;45.408;10.962;2023-05-10T13:07:26;100381.38;;;18.67;95.05
45813;BME280;31519;45.408;10.962;2023-05-10T13:09:54;100371.28;;;18.86;94.74
45813;BME280;31519;45.408;10.962;2023-05-10T13:12:22;100370.16;;;18.87;94.78
45813;BME280;31519;45.408;10.962;2023-05-10T13:14:50;100372.22;;;18.97;92.99
45813;BME280;31519;45.408;10.962;2023-05-10T13:17:19;100370.50;;;18.86;94.36
45813;BME280;31519;45.408;10.962;2023-05-10T13:19:46;100367.72;;;18.79;95.19
45813;BME280;31519;45.408;10.962;2023-05-10T13:22:15;100364.63;;;18.80;92.24